sensor_id;sensor_type;location;lat;lon;timestamp;pressure;altitude;pressure_sealevel;temperature;humidity
41800;BME280;27468;47.460;19.034;2023-04-06T00:01:12;100646.16;;;1.43;49.84
41800;BME280;27468;47.460;19.034;2023-04-06T00:03:37;100664.50;;;1.51;49.49
41800;BME280;27468;47.460;19.034;2023-04-06T00:06:03;100645.06;;;1.33;50.05
41800;BME280;27468;47.460;19.034;2023-04-06T00:08:29;100628.31;;;1.19;50.78
41800;BME280;27468;47.460;19.034;2023-04-06T00:10:55;100585.25;;;0.90;51.04
41800;BME280;27468;47.460;19.034;2023-04-06T00:13:20;100658.97;;;1.36;50.65
41800;BME280;27468;47.460;19.034;2023-04-06T00:15:46;100650.19;;;1.30;51.09
41800;BME280;27468;47.460;19.034;2023-04-06T00:18:12;100617.63;;;1.06;51.09
41800;BME280;27468;47.460;19.034;2023-04-06T00:20:37;100604.44;;;0.96;51.02
41800;BME280;27468;47.460;19.034;2023-04-06T00:23:03;100597.25;;;0.85;51.74
41800;BME280;27468;47.460;19.034;2023-04-06T00:25:29;100647.16;;;1.09;51.91
41800;BME280;27468;47.460;19.034;2023-04-06T00:27:54;100645.31;;;1.05;51.95
41800;BME280;27468;47.460;19.034;2023-04-06T00:30:20;100596.13;;;0.74;51.79
41800;BME280;27468;47.460;19.034;2023-04-06T00:32:45;100588.41;;;0.77;51.54
41800;BME280;27468;47.460;19.034;2023-04-06T00:35:11;100637.41;;;0.99;51.78
41800;BME280;27468;47.460;19.034;2023-04-06T00:37:36;100632.09;;;0.94;52.08
41800;BME280;27468;47.460;19.034;2023-04-06T00:40:02;100613.56;;;0.79;52.40
41800;BME280;27468;47.460;19.034;2023-04-06T00:42:28;100589.88;;;0.65;52.25
41800;BME280;27468;47.460;19.034;2023-04-06T00:44:55;100565.28;;;0.48;52.64
41800;BME280;27468;47.460;19.034;2023-04-06T00:47:22;100635.28;;;0.83;52.81
41800;BME280;27468;47.460;19.034;2023-04-06T00:49:48;100633.53;;;0.82;52.65
41800;BME280;27468;47.460;19.034;2023-04-06T00:52:14;100578.16;;;0.44;52.97
41800;BME280;27468;47.460;19.034;2023-04-06T00:54:39;100598.28;;;0.54;53.46
41800;BME280;27468;47.460;19.034;2023-04-06T00:57:05;100559.50;;;0.24;53.57
41800;BME280;27468;47.460;19.034;2023-04-06T00:59:31;100605.13;;;0.50;53.18
41800;BME280;27468;47.460;19.034;2023-04-06T01:01:56;100634.75;;;0.61;53.80
41800;BME280;27468;47.460;19.034;2023-04-06T01:04:22;100631.22;;;0.58;53.62
41800;BME280;27468;47.460;19.034;2023-04-06T01:06:50;100629.31;;;0.49;53.47
41800;BME280;27468;47.460;19.034;2023-04-06T01:09:19;100566.38;;;0.22;53.53
41800;BME280;27468;47.460;19.034;2023-04-06T01:11:44;100586.44;;;0.29;52.91
41800;BME280;27468;47.460;19.034;2023-04-06T01:14:10;100618.84;;;0.46;53.31
41800;BME280;27468;47.460;19.034;2023-04-06T01:16:36;100626.63;;;0.46;53.51
41800;BME280;27468;47.460;19.034;2023-04-06T01:19:09;100536.91;;;-0.16;54.09
41800;BME280;27468;47.460;19.034;2023-04-06T01:21:36;100625.47;;;0.35;54.34
41800;BME280;27468;47.460;19.034;2023-04-06T01:24:02;100577.19;;;0.06;54.37
41800;BME280;27468;47.460;19.034;2023-04-06T01:26:27;100583.34;;;0.09;54.30
41800;BME280;27468;47.460;19.034;2023-04-06T01:28:54;100580.63;;;0.05;54.59
41800;BME280;27468;47.460;19.034;2023-04-06T01:31:20;100630.50;;;0.29;54.55
41800;BME280;27468;47.460;19.034;2023-04-06T01:33:46;100615.50;;;0.17;54.57
41800;BME280;27468;47.460;19.034;2023-04-06T01:36:12;100605.94;;;0.15;54.71
41800;BME280;27468;47.460;19.034;2023-04-06T01:38:37;100557.66;;;-0.16;54.52
41800;BME280;27468;47.460;19.034;2023-04-06T01:41:03;100594.53;;;0.08;54.10
41800;BME280;27468;47.460;19.034;2023-04-06T01:43:28;100576.09;;;-0.04;54.26
41800;BME280;27468;47.460;19.034;2023-04-06T01:45:53;100626.84;;;0.21;54.63
41800;BME280;27468;47.460;19.034;2023-04-06T01:48:19;100609.28;;;0.11;54.63
41800;BME280;27468;47.460;19.034;2023-04-06T01:50:44;100607.66;;;0.14;54.14
41800;BME280;27468;47.460;19.034;2023-04-06T01:53:10;100549.75;;;-0.21;54.14
41800;BME280;27468;47.460;19.034;2023-04-06T01:55:35;100577.81;;;-0.05;54.15
41800;BME280;27468;47.460;19.034;2023-04-06T01:58:01;100597.13;;;0.08;54.03
41800;BME280;27468;47.460;19.034;2023-04-06T02:00:26;100618.94;;;0.16;54.15
41800;BME280;27468;47.460;19.034;2023-04-06T02:02:51;100618.81;;;0.12;54.12
41800;BME280;27468;47.460;19.034;2023-04-06T02:05:17;100559.34;;;-0.17;54.03
41800;BME280;27468;47.460;19.034;2023-04-06T02:07:42;100536.50;;;-0.31;54.07
41800;BME280;27468;47.460;19.034;2023-04-06T02:10:12;100590.91;;;0.02;54.17
41800;BME280;27468;47.460;19.034;2023-04-06T02:12:38;100547.88;;;-0.26;53.86
41800;BME280;27468;47.460;19.034;2023-04-06T02:15:04;100609.09;;;0.03;54.27
41800;BME280;27468;47.460;19.034;2023-04-06T02:17:29;100582.22;;;-0.02;54.23
41800;BME280;27468;47.460;19.034;2023-04-06T02:19:55;100605.69;;;0.06;54.26
41800;BME280;27468;47.460;19.034;2023-04-06T02:22:20;100525.94;;;-0.39;54.11
41800;BME280;27468;47.460;19.034;2023-04-06T02:24:46;100602.19;;;0.04;54.08
41800;BME280;27468;47.460;19.034;2023-04-06T02:27:13;100574.94;;;-0.15;54.01
41800;BME280;27468;47.460;19.034;2023-04-06T02:29:38;100598.72;;;0.03;53.97
41800;BME280;27468;47.460;19.034;2023-04-06T02:32:04;100596.88;;;-0.03;53.93
41800;BME280;27468;47.460;19.034;2023-04-06T02:34:29;100582.09;;;-0.07;53.79
41800;BME280;27468;47.460;19.034;2023-04-06T02:36:55;100584.72;;;-0.05;54.11
41800;BME280;27468;47.460;19.034;2023-04-06T02:39:20;100579.50;;;-0.07;54.02
41800;BME280;27468;47.460;19.034;2023-04-06T02:41:46;100553.94;;;-0.26;54.09
41800;BME280;27468;47.460;19.034;2023-04-06T02:44:11;100549.50;;;-0.30;53.88
41800;BME280;27468;47.460;19.034;2023-04-06T02:46:37;100564.25;;;-0.27;54.28
41800;BME280;27468;47.460;19.034;2023-04-06T02:49:02;100565.13;;;-0.27;54.34
41800;BME280;27468;47.460;19.034;2023-04-06T02:51:27;100541.44;;;-0.41;54.37
41800;BME280;27468;47.460;19.034;2023-04-06T02:53:53;100532.59;;;-0.49;54.20
41800;BME280;27468;47.460;19.034;2023-04-06T02:56:18;100585.44;;;-0.11;54.06
41800;BME280;27468;47.460;19.034;2023-04-06T02:58:46;100579.00;;;-0.25;54.42
41800;BME280;27468;47.460;19.034;2023-04-06T03:01:11;100578.25;;;-0.21;54.38
41800;BME280;27468;47.460;19.034;2023-04-06T03:03:37;100544.00;;;-0.42;54.42
41800;BME280;27468;47.460;19.034;2023-04-06T03:06:02;100526.38;;;-0.55;54.48
41800;BME280;27468;47.460;19.034;2023-04-06T03:08:28;100525.44;;;-0.57;54.70
41800;BME280;27468;47.460;19.034;2023-04-06T03:10:53;100572.75;;;-0.33;54.79
41800;BME280;27468;47.460;19.034;2023-04-06T03:13:19;100578.91;;;-0.28;55.11
41800;BME280;27468;47.460;19.034;2023-04-06T03:15:44;100569.19;;;-0.37;55.22
41800;BME280;27468;47.460;19.034;2023-04-06T03:18:10;100577.00;;;-0.35;54.83
41800;BME280;27468;47.460;19.034;2023-04-06T03:20:35;100581.22;;;-0.39;54.90
41800;BME280;27468;47.460;19.034;2023-04-06T03:23:00;100540.06;;;-0.61;55.08
41800;BME280;27468;47.460;19.034;2023-04-06T03:25:26;100568.19;;;-0.42;55.33
41800;BME280;27468;47.460;19.034;2023-04-06T03:27:52;100572.53;;;-0.41;55.14
41800;BME280;27468;47.460;19.034;2023-04-06T03:30:17;100573.22;;;-0.46;55.29
41800;BME280;27468;47.460;19.034;2023-04-06T03:32:43;100582.94;;;-0.39;55.16
41800;BME280;27468;47.460;19.034;2023-04-06T03:35:09;100580.38;;;-0.38;55.16
41800;BME280;27468;47.460;19.034;2023-04-06T03:37:35;100586.28;;;-0.43;55.28
41800;BME280;27468;47.460;19.034;2023-04-06T03:40:01;100593.06;;;-0.47;55.58
41800;BME280;27468;47.460;19.034;2023-04-06T03:42:26;100598.44;;;-0.41;55.42
41800;BME280;27468;47.460;19.034;2023-04-06T03:44:53;100576.41;;;-0.56;55.24
41800;BME280;27468;47.460;19.034;2023-04-06T03:47:19;100551.91;;;-0.69;55.39
41800;BME280;27468;47.460;19.034;2023-04-06T03:49:44;100519.53;;;-0.85;55.71
41800;BME280;27468;47.460;19.034;2023-04-06T03:52:10;100566.75;;;-0.63;55.46
41800;BME280;27468;47.460;19.034;2023-04-06T03:54:36;100549.97;;;-0.76;55.70
41800;BME280;27468;47.460;19.034;2023-04-06T03:57:01;100519.34;;;-0.91;56.00
41800;BME280;27468;47.460;19.034;2023-04-06T03:59:27;100593.00;;;-0.50;55.67
41800;BME280;27468;47.460;19.034;2023-04-06T04:01:52;100536.84;;;-0.82;55.88
41800;BME280;27468;47.460;19.034;2023-04-06T04:04:18;100591.22;;;-0.51;55.87
41800;BME280;27468;47.460;19.034;2023-04-06T04:06:43;100496.63;;;-1.01;55.90
41800;BME280;27468;47.460;19.034;2023-04-06T04:09:09;100596.38;;;-0.52;56.01
41800;BME280;27468;47.460;19.034;2023-04-06T04:11:35;100576.31;;;-0.61;55.94
41800;BME280;27468;47.460;19.034;2023-04-06T04:14:00;100576.47;;;-0.53;55.67
41800;BME280;27468;47.460;19.034;2023-04-06T04:16:25;100556.34;;;-0.65;55.67
41800;BME280;27468;47.460;19.034;2023-04-06T04:18:51;100584.22;;;-0.55;55.66
41800;BME280;27468;47.460;19.034;2023-04-06T04:21:16;100556.28;;;-0.67;55.96
41800;BME280;27468;47.460;19.034;2023-04-06T04:23:42;100571.97;;;-0.62;55.81
41800;BME280;27468;47.460;19.034;2023-04-06T04:26:07;100575.66;;;-0.52;55.83
41800;BME280;27468;47.460;19.034;2023-04-06T04:28:33;100581.66;;;-0.53;56.23
41800;BME280;27468;47.460;19.034;2023-04-06T04:30:58;100582.63;;;-0.50;55.81
41800;BME280;27468;47.460;19.034;2023-04-06T04:33:23;100506.50;;;-0.88;56.09
41800;BME280;27468;47.460;19.034;2023-04-06T04:35:49;100550.50;;;-0.58;56.08
41800;BME280;27468;47.460;19.034;2023-04-06T04:38:15;100561.16;;;-0.46;56.00
41800;BME280;27468;47.460;19.034;2023-04-06T04:40:40;100564.75;;;-0.41;56.12
41800;BME280;27468;47.460;19.034;2023-04-06T04:43:06;100541.28;;;-0.47;55.96
41800;BME280;27468;47.460;19.034;2023-04-06T04:45:31;100524.81;;;-0.49;55.66
41800;BME280;27468;47.460;19.034;2023-04-06T04:47:56;100511.66;;;-0.56;55.57
41800;BME280;27468;47.460;19.034;2023-04-06T04:50:22;100552.38;;;-0.19;55.63
41800;BME280;27468;47.460;19.034;2023-04-06T04:52:47;100546.38;;;-0.18;55.65
41800;BME280;27468;47.460;19.034;2023-04-06T04:55:13;100547.41;;;-0.12;55.21
41800;BME280;27468;47.460;19.034;2023-04-06T04:57:39;100493.00;;;-0.45;55.40
41800;BME280;27468;47.460;19.034;2023-04-06T05:00:05;100530.94;;;-0.14;54.98
41800;BME280;27468;47.460;19.034;2023-04-06T05:02:30;100562.63;;;0.11;54.98
41800;BME280;27468;47.460;19.034;2023-04-06T05:04:56;100567.09;;;0.16;54.82
41800;BME280;27468;47.460;19.034;2023-04-06T05:07:21;100542.78;;;0.11;54.59
41800;BME280;27468;47.460;19.034;2023-04-06T05:09:47;100538.72;;;0.22;54.47
41800;BME280;27468;47.460;19.034;2023-04-06T05:12:13;100555.53;;;0.38;54.00
41800;BME280;27468;47.460;19.034;2023-04-06T05:14:39;100561.91;;;0.51;53.64
41800;BME280;27468;47.460;19.034;2023-04-06T05:17:04;100549.94;;;0.59;53.50
41800;BME280;27468;47.460;19.034;2023-04-06T05:19:30;100488.72;;;0.28;53.48
41800;BME280;27468;47.460;19.034;2023-04-06T05:21:56;100544.91;;;0.65;53.34
41800;BME280;27468;47.460;19.034;2023-04-06T05:24:21;100499.75;;;0.55;53.18
41800;BME280;27468;47.460;19.034;2023-04-06T05:26:48;100536.69;;;0.84;52.85
41800;BME280;27468;47.460;19.034;2023-04-06T05:29:13;100521.19;;;0.87;52.50
41800;BME280;27468;47.460;19.034;2023-04-06T05:31:39;100488.81;;;0.70;52.32
41800;BME280;27468;47.460;19.034;2023-04-06T05:34:04;100519.81;;;1.05;52.50
41800;BME280;27468;47.460;19.034;2023-04-06T05:36:30;100520.03;;;1.14;52.23
41800;BME280;27468;47.460;19.034;2023-04-06T05:38:56;100458.88;;;0.86;52.39
41800;BME280;27468;47.460;19.034;2023-04-06T05:41:21;100472.28;;;1.07;51.75
41800;BME280;27468;47.460;19.034;2023-04-06T05:43:47;100502.34;;;1.41;51.41
41800;BME280;27468;47.460;19.034;2023-04-06T05:46:12;100492.91;;;1.45;51.29
41800;BME280;27468;47.460;19.034;2023-04-06T05:48:37;100496.66;;;1.60;50.84
41800;BME280;27468;47.460;19.034;2023-04-06T05:51:03;100508.22;;;1.79;50.60
41800;BME280;27468;47.460;19.034;2023-04-06T05:53:31;100476.88;;;1.69;50.06
41800;BME280;27468;47.460;19.034;2023-04-06T05:55:57;100498.00;;;1.88;50.15
41800;BME280;27468;47.460;19.034;2023-04-06T05:58:22;100498.16;;;1.97;49.63
41800;BME280;27468;47.460;19.034;2023-04-06T06:00:48;100436.97;;;1.65;49.82
41800;BME280;27468;47.460;19.034;2023-04-06T06:03:14;100447.63;;;1.82;49.42
41800;BME280;27468;47.460;19.034;2023-04-06T06:05:40;100477.47;;;2.05;49.01
41800;BME280;27468;47.460;19.034;2023-04-06T06:08:05;100503.00;;;2.29;49.13
41800;BME280;27468;47.460;19.034;2023-04-06T06:10:31;100486.53;;;2.31;48.69
41800;BME280;27468;47.460;19.034;2023-04-06T06:12:56;100490.19;;;2.44;48.35
41800;BME280;27468;47.460;19.034;2023-04-06T06:15:22;100478.13;;;2.49;47.73
41800;BME280;27468;47.460;19.034;2023-04-06T06:17:47;100492.28;;;2.68;47.78
41800;BME280;27468;47.460;19.034;2023-04-06T06:20:13;100481.03;;;2.71;47.50
41800;BME280;27468;47.460;19.034;2023-04-06T06:22:38;100483.75;;;2.78;47.29
41800;BME280;27468;47.460;19.034;2023-04-06T06:25:05;100444.53;;;2.64;47.05
41800;BME280;27468;47.460;19.034;2023-04-06T06:27:30;100414.94;;;2.59;46.79
41800;BME280;27468;47.460;19.034;2023-04-06T06:29:56;100426.47;;;2.77;46.43
41800;BME280;27468;47.460;19.034;2023-04-06T06:32:21;100437.03;;;2.93;45.73
41800;BME280;27468;47.460;19.034;2023-04-06T06:34:47;100416.19;;;2.92;45.22
41800;BME280;27468;47.460;19.034;2023-04-06T06:37:12;100416.31;;;3.01;44.63
41800;BME280;27468;47.460;19.034;2023-04-06T06:39:38;100475.84;;;3.48;44.84
41800;BME280;27468;47.460;19.034;2023-04-06T06:42:03;100396.53;;;3.18;44.97
41800;BME280;27468;47.460;19.034;2023-04-06T06:44:29;100413.28;;;3.42;45.00
41800;BME280;27468;47.460;19.034;2023-04-06T06:46:54;100459.72;;;3.85;44.91
41800;BME280;27468;47.460;19.034;2023-04-06T06:49:20;100467.63;;;3.94;44.05
41800;BME280;27468;47.460;19.034;2023-04-06T06:51:45;100438.00;;;3.88;43.38
41800;BME280;27468;47.460;19.034;2023-04-06T06:54:11;100402.28;;;3.79;43.55
41800;BME280;27468;47.460;19.034;2023-04-06T06:56:37;100449.47;;;4.11;40.27
41800;BME280;27468;47.460;19.034;2023-04-06T06:59:03;100433.78;;;4.10;39.99
41800;BME280;27468;47.460;19.034;2023-04-06T07:01:29;100451.34;;;4.29;39.53
41800;BME280;27468;47.460;19.034;2023-04-06T07:03:55;100453.13;;;4.36;38.98
41800;BME280;27468;47.460;19.034;2023-04-06T07:06:20;100404.28;;;4.17;38.94
41800;BME280;27468;47.460;19.034;2023-04-06T07:08:46;100435.75;;;4.43;38.85
41800;BME280;27468;47.460;19.034;2023-04-06T07:11:11;100393.06;;;4.31;38.40
41800;BME280;27468;47.460;19.034;2023-04-06T07:13:37;100449.78;;;4.66;38.38
41800;BME280;27468;47.460;19.034;2023-04-06T07:16:02;100436.72;;;4.64;38.60
41800;BME280;27468;47.460;19.034;2023-04-06T07:18:28;100442.91;;;4.83;37.66
41800;BME280;27468;47.460;19.034;2023-04-06T07:20:53;100429.84;;;4.82;37.95
41800;BME280;27468;47.460;19.034;2023-04-06T07:23:19;100448.22;;;5.00;37.92
41800;BME280;27468;47.460;19.034;2023-04-06T07:25:44;100442.16;;;5.07;37.76
41800;BME280;27468;47.460;19.034;2023-04-06T07:28:10;100452.63;;;5.12;37.34
41800;BME280;27468;47.460;19.034;2023-04-06T07:30:37;100454.38;;;5.19;37.22
41800;BME280;27468;47.460;19.034;2023-04-06T07:33:02;100452.63;;;5.22;36.69
41800;BME280;27468;47.460;19.034;2023-04-06T07:35:28;100444.78;;;5.16;36.66
41800;BME280;27468;47.460;19.034;2023-04-06T07:37:55;100434.34;;;5.18;36.94
41800;BME280;27468;47.460;19.034;2023-04-06T07:40:21;100402.91;;;4.95;37.24
41800;BME280;27468;47.460;19.034;2023-04-06T07:42:46;100442.19;;;5.18;37.46
41800;BME280;27468;47.460;19.034;2023-04-06T07:45:12;100423.03;;;5.19;36.95
41800;BME280;27468;47.460;19.034;2023-04-06T07:47:38;100430.88;;;5.29;36.91
41800;BME280;27468;47.460;19.034;2023-04-06T07:50:04;100426.50;;;5.35;36.88
41800;BME280;27468;47.460;19.034;2023-04-06T07:52:30;100372.47;;;5.15;36.36
41800;BME280;27468;47.460;19.034;2023-04-06T07:54:57;100442.25;;;5.60;36.65
41800;BME280;27468;47.460;19.034;2023-04-06T07:57:23;100437.03;;;5.70;35.99
41800;BME280;27468;47.460;19.034;2023-04-06T07:59:48;100421.34;;;5.68;35.63
41800;BME280;27468;47.460;19.034;2023-04-06T08:02:14;100367.25;;;5.32;36.24
41800;BME280;27468;47.460;19.034;2023-04-06T08:04:40;100412.63;;;5.74;36.04
41800;BME280;27468;47.460;19.034;2023-04-06T08:07:05;100391.69;;;5.64;35.57
41800;BME280;27468;47.460;19.034;2023-04-06T08:09:31;100416.13;;;5.92;35.26
41800;BME280;27468;47.460;19.034;2023-04-06T08:11:57;100417.00;;;5.96;35.25
41800;BME280;27468;47.460;19.034;2023-04-06T08:14:22;100420.47;;;5.93;35.22
41800;BME280;27468;47.460;19.034;2023-04-06T08:16:48;100429.22;;;6.09;35.20
41800;BME280;27468;47.460;19.034;2023-04-06T08:19:13;100444.03;;;6.25;34.93
41800;BME280;27468;47.460;19.034;2023-04-06T08:21:42;100426.59;;;6.17;35.06
41800;BME280;27468;47.460;19.034;2023-04-06T08:24:08;100362.88;;;5.86;35.20
41800;BME280;27468;47.460;19.034;2023-04-06T08:26:33;100429.19;;;6.34;35.56
41800;BME280;27468;47.460;19.034;2023-04-06T08:28:59;100432.69;;;6.31;34.87
41800;BME280;27468;47.460;19.034;2023-04-06T08:31:24;100437.00;;;6.37;35.17
41800;BME280;27468;47.460;19.034;2023-04-06T08:33:50;100422.16;;;6.40;35.20
41800;BME280;27468;47.460;19.034;2023-04-06T08:36:16;100418.63;;;6.59;35.20
41800;BME280;27468;47.460;19.034;2023-04-06T08:38:43;100416.88;;;6.58;34.98
41800;BME280;27468;47.460;19.034;2023-04-06T08:41:13;100429.03;;;6.79;35.14
41800;BME280;27468;47.460;19.034;2023-04-06T08:43:44;100406.34;;;6.77;34.52
41800;BME280;27468;47.460;19.034;2023-04-06T08:46:10;100415.84;;;6.94;34.78
41800;BME280;27468;47.460;19.034;2023-04-06T08:48:38;100406.19;;;7.01;34.35
41800;BME280;27468;47.460;19.034;2023-04-06T08:51:04;100396.63;;;6.94;34.71
41800;BME280;27468;47.460;19.034;2023-04-06T08:53:29;100387.84;;;7.04;34.04
41800;BME280;27468;47.460;19.034;2023-04-06T08:55:56;100400.06;;;7.04;33.95
41800;BME280;27468;47.460;19.034;2023-04-06T08:58:23;100404.53;;;6.89;34.13
41800;BME280;27468;47.460;19.034;2023-04-06T09:00:49;100407.16;;;6.86;34.46
41800;BME280;27468;47.460;19.034;2023-04-06T09:03:16;100353.94;;;6.78;34.10
41800;BME280;27468;47.460;19.034;2023-04-06T09:05:43;100394.91;;;6.93;34.13
41800;BME280;27468;47.460;19.034;2023-04-06T09:08:10;100390.56;;;6.86;34.34
41800;BME280;27468;47.460;19.034;2023-04-06T09:10:41;100348.78;;;6.58;34.47
41800;BME280;27468;47.460;19.034;2023-04-06T09:13:07;100401.88;;;6.94;34.15
41800;BME280;27468;47.460;19.034;2023-04-06T09:15:34;100374.78;;;6.96;33.92
41800;BME280;27468;47.460;19.034;2023-04-06T09:18:00;100369.44;;;7.12;33.52
41800;BME280;27468;47.460;19.034;2023-04-06T09:20:26;100354.59;;;7.09;33.35
41800;BME280;27468;47.460;19.034;2023-04-06T09:22:53;100381.56;;;7.34;32.43
41800;BME280;27468;47.460;19.034;2023-04-06T09:25:20;100376.22;;;7.48;32.90
41800;BME280;27468;47.460;19.034;2023-04-06T09:27:46;100363.81;;;7.65;32.51
41800;BME280;27468;47.460;19.034;2023-04-06T09:30:12;100353.22;;;7.76;32.15
41800;BME280;27468;47.460;19.034;2023-04-06T09:32:49;100326.25;;;7.60;31.98
41800;BME280;27468;47.460;19.034;2023-04-06T09:35:15;100376.00;;;7.71;32.01
41800;BME280;27468;47.460;19.034;2023-04-06T09:37:41;100318.66;;;7.28;31.57
41800;BME280;27468;47.460;19.034;2023-04-06T09:40:08;100362.88;;;7.71;31.67
41800;BME280;27468;47.460;19.034;2023-04-06T09:42:34;100339.41;;;7.54;32.08
41800;BME280;27468;47.460;19.034;2023-04-06T09:45:00;100351.47;;;7.76;32.07
41800;BME280;27468;47.460;19.034;2023-04-06T09:47:26;100355.78;;;7.85;32.24
41800;BME280;27468;47.460;19.034;2023-04-06T09:49:56;100353.09;;;7.91;32.24
41800;BME280;27468;47.460;19.034;2023-04-06T09:52:27;100354.59;;;8.12;32.08
41800;BME280;27468;47.460;19.034;2023-04-06T09:54:55;100346.56;;;8.28;31.84
41800;BME280;27468;47.460;19.034;2023-04-06T09:57:29;100342.03;;;8.46;31.17
41800;BME280;27468;47.460;19.034;2023-04-06T10:00:07;100300.25;;;8.21;30.92
41800;BME280;27468;47.460;19.034;2023-04-06T10:02:59;100334.69;;;8.69;30.66
41800;BME280;27468;47.460;19.034;2023-04-06T10:08:09;100337.00;;;8.95;30.48
41800;BME280;27468;47.460;19.034;2023-04-06T10:10:36;100309.16;;;8.80;30.49
41800;BME280;27468;47.460;19.034;2023-04-06T10:13:03;100267.34;;;8.64;30.20
41800;BME280;27468;47.460;19.034;2023-04-06T10:15:30;100327.28;;;9.00;30.33
41800;BME280;27468;47.460;19.034;2023-04-06T10:17:59;100329.53;;;9.24;30.32
41800;BME280;27468;47.460;19.034;2023-04-06T10:20:38;100321.41;;;9.40;30.04
41800;BME280;27468;47.460;19.034;2023-04-06T10:25:56;100310.03;;;9.38;29.59
41800;BME280;27468;47.460;19.034;2023-04-06T10:28:23;100313.44;;;9.44;29.65
41800;BME280;27468;47.460;19.034;2023-04-06T10:30:49;100273.59;;;9.15;29.62
41800;BME280;27468;47.460;19.034;2023-04-06T10:33:16;100298.50;;;9.45;29.79
41800;BME280;27468;47.460;19.034;2023-04-06T10:35:42;100261.66;;;9.46;28.81
41800;BME280;27468;47.460;19.034;2023-04-06T10:38:08;100256.47;;;9.42;28.22
41800;BME280;27468;47.460;19.034;2023-04-06T10:40:38;100308.66;;;9.68;28.59
41800;BME280;27468;47.460;19.034;2023-04-06T10:43:11;100256.19;;;9.57;28.42
41800;BME280;27468;47.460;19.034;2023-04-06T10:45:38;100253.16;;;9.80;28.31
41800;BME280;27468;47.460;19.034;2023-04-06T10:48:17;100280.75;;;10.05;27.75
41800;BME280;27468;47.460;19.034;2023-04-06T10:50:51;100278.91;;;10.09;28.05
41800;BME280;27468;47.460;19.034;2023-04-06T10:53:22;100263.09;;;10.10;27.50
41800;BME280;27468;47.460;19.034;2023-04-06T10:55:49;100260.75;;;9.95;27.87
41800;BME280;27468;47.460;19.034;2023-04-06T10:58:15;100274.91;;;9.88;28.26
41800;BME280;27468;47.460;19.034;2023-04-06T11:00:48;100238.09;;;9.86;28.13
41800;BME280;27468;47.460;19.034;2023-04-06T11:03:14;100234.38;;;9.97;27.71
41800;BME280;27468;47.460;19.034;2023-04-06T11:05:46;100268.16;;;10.22;27.65
41800;BME280;27468;47.460;19.034;2023-04-06T11:08:32;100288.97;;;10.35;27.33
41800;BME280;27468;47.460;19.034;2023-04-06T11:11:12;100275.97;;;10.27;27.21
41800;BME280;27468;47.460;19.034;2023-04-06T11:13:41;100281.75;;;10.43;27.14
41800;BME280;27468;47.460;19.034;2023-04-06T11:16:12;100281.44;;;10.58;27.19
41800;BME280;27468;47.460;19.034;2023-04-06T11:18:45;100247.47;;;10.44;26.51
41800;BME280;27468;47.460;19.034;2023-04-06T11:21:11;100237.44;;;10.21;27.00
41800;BME280;27468;47.460;19.034;2023-04-06T11:23:36;100257.78;;;10.55;27.04
41800;BME280;27468;47.460;19.034;2023-04-06T11:26:02;100266.28;;;10.68;26.56
41800;BME280;27468;47.460;19.034;2023-04-06T11:28:27;100266.94;;;10.79;26.69
41800;BME280;27468;47.460;19.034;2023-04-06T11:30:53;100230.03;;;10.77;26.00
41800;BME280;27468;47.460;19.034;2023-04-06T11:33:22;100252.88;;;10.78;26.65
41800;BME280;27468;47.460;19.034;2023-04-06T11:35:48;100241.66;;;10.69;28.12
41800;BME280;27468;47.460;19.034;2023-04-06T11:38:14;100241.91;;;10.97;25.95
41800;BME280;27468;47.460;19.034;2023-04-06T11:40:39;100242.09;;;10.89;26.11
41800;BME280;27468;47.460;19.034;2023-04-06T11:43:05;100242.78;;;10.97;26.86
41800;BME280;27468;47.460;19.034;2023-04-06T11:45:42;100262.25;;;11.27;25.88
41800;BME280;27468;47.460;19.034;2023-04-06T11:48:18;100219.38;;;11.17;25.70
41800;BME280;27468;47.460;19.034;2023-04-06T11:50:46;100233.78;;;11.40;25.87
41800;BME280;27468;47.460;19.034;2023-04-06T11:53:12;100214.94;;;11.19;25.27
41800;BME280;27468;47.460;19.034;2023-04-06T11:55:37;100219.47;;;11.14;26.15
41800;BME280;27468;47.460;19.034;2023-04-06T11:58:03;100208.22;;;11.06;26.60
41800;BME280;27468;47.460;19.034;2023-04-06T12:00:29;100231.91;;;11.09;26.62
41800;BME280;27468;47.460;19.034;2023-04-06T12:02:59;100205.09;;;10.92;26.76
41800;BME280;27468;47.460;19.034;2023-04-06T12:05:25;100225.13;;;10.98;27.02
41800;BME280;27468;47.460;19.034;2023-04-06T12:07:50;100231.44;;;10.94;26.91
41800;BME280;27468;47.460;19.034;2023-04-06T12:10:16;100220.50;;;11.07;26.56
41800;BME280;27468;47.460;19.034;2023-04-06T12:12:41;100224.50;;;10.89;26.82
41800;BME280;27468;47.460;19.034;2023-04-06T12:15:07;100231.19;;;11.03;27.09
41800;BME280;27468;47.460;19.034;2023-04-06T12:17:33;100193.75;;;10.50;26.85
41800;BME280;27468;47.460;19.034;2023-04-06T12:19:58;100219.78;;;10.65;27.11
41800;BME280;27468;47.460;19.034;2023-04-06T12:22:24;100225.25;;;10.56;26.91
41800;BME280;27468;47.460;19.034;2023-04-06T12:24:49;100162.63;;;10.29;27.24
41800;BME280;27468;47.460;19.034;2023-04-06T12:27:15;100186.72;;;10.50;27.15
41800;BME280;27468;47.460;19.034;2023-04-06T12:29:41;100206.53;;;10.68;26.55
41800;BME280;27468;47.460;19.034;2023-04-06T12:32:07;100218.66;;;10.75;26.67
41800;BME280;27468;47.460;19.034;2023-04-06T12:34:33;100226.84;;;10.63;26.87
41800;BME280;27468;47.460;19.034;2023-04-06T12:36:59;100217.88;;;10.72;26.51
41800;BME280;27468;47.460;19.034;2023-04-06T12:39:25;100185.91;;;10.47;26.70
41800;BME280;27468;47.460;19.034;2023-04-06T12:41:53;100216.00;;;10.77;26.58
41800;BME280;27468;47.460;19.034;2023-04-06T12:44:18;100212.13;;;10.91;27.02
41800;BME280;27468;47.460;19.034;2023-04-06T12:46:44;100233.53;;;11.15;26.81